| time (UTC) | temp F | wind direction | speed MPH | gust MPH | rain 1hr in | rain 24hr in | rain mn in | humidity % | barometer mb |
| 20260508041331 | 51 | 276 | 2.0 | 7.0 | 0.00 | 0.00 | 0.00 | 50 | 1012.0 |
| 20260508040828 | 51 | 276 | 3.0 | 6.0 | 0.00 | 0.00 | 0.00 | 50 | 1011.9 |
| 20260508040339 | 52 | 271 | 2.0 | 5.0 | 0.00 | 0.00 | 0.00 | 50 | 1011.8 |
| 20260508035828 | 52 | 98 | 2.0 | 5.0 | 0.00 | 0.00 | 0.00 | 50 | 1011.7 |
| 20260508035340 | 52 | 272 | 2.0 | 5.0 | 0.00 | 0.00 | 0.00 | 50 | 1011.6 |
| 20260508034831 | 52 | 274 | 4.0 | 6.0 | 0.00 | 0.00 | 0.00 | 49 | 1011.5 |
| 20260508034322 | 52 | 290 | 2.0 | 7.0 | 0.00 | 0.00 | 0.00 | 49 | 1011.4 |
| 20260508033814 | 52 | 290 | 3.0 | 10.0 | 0.00 | 0.00 | 0.00 | 49 | 1011.4 |
| 20260508033326 | 52 | 267 | 5.0 | 10.0 | 0.00 | 0.00 | 0.00 | 49 | 1011.4 |
| 20260508032838 | 53 | 277 | 1.0 | 8.0 | 0.00 | 0.00 | 0.00 | 49 | 1011.4 |
| 20260508032329 | 53 | 302 | 3.0 | 9.0 | 0.00 | 0.00 | 0.00 | 48 | 1011.4 |
| 20260508031825 | 53 | 302 | 3.0 | 9.0 | 0.00 | 0.00 | 0.00 | 48 | 1011.3 |
| 20260508031316 | 53 | 279 | 4.0 | 8.0 | 0.00 | 0.00 | 0.00 | 48 | 1011.3 |
| 20260508030829 | 53 | 274 | 3.0 | 9.0 | 0.00 | 0.00 | 0.00 | 48 | 1011.2 |
| 20260508030319 | 53 | 279 | 4.0 | 9.0 | 0.00 | 0.00 | 0.00 | 48 | 1011.2 |
| 20260508025829 | 54 | 286 | 4.0 | 9.0 | 0.00 | 0.00 | 0.00 | 48 | 1011.1 |
| 20260508025321 | 54 | 291 | 4.0 | 11.0 | 0.00 | 0.00 | 0.00 | 48 | 1011.0 |
| 20260508024833 | 54 | 294 | 5.0 | 11.0 | 0.00 | 0.00 | 0.00 | 47 | 1011.1 |
| 20260508024324 | 54 | 282 | 6.0 | 13.0 | 0.00 | 0.00 | 0.00 | 47 | 1010.9 |
| 20260508023837 | 54 | 296 | 6.0 | 13.0 | 0.00 | 0.00 | 0.00 | 48 | 1010.9 |
| 20260508023331 | 54 | 290 | 4.0 | 7.0 | 0.00 | 0.00 | 0.00 | 49 | 1010.9 |
| 20260508022822 | 54 | 297 | 4.0 | 9.0 | 0.00 | 0.00 | 0.00 | 49 | 1010.9 |
| 20260508022313 | 54 | 287 | 4.0 | 9.0 | 0.00 | 0.00 | 0.00 | 48 | 1010.9 |
| 20260508021825 | 54 | 291 | 3.0 | 6.0 | 0.00 | 0.00 | 0.00 | 49 | 1010.9 |
| 20260508021337 | 54 | 305 | 2.0 | 5.0 | 0.00 | 0.00 | 0.00 | 48 | 1010.8 |
| 20260508020828 | 54 | 300 | 2.0 | 6.0 | 0.00 | 0.00 | 0.00 | 48 | 1010.7 |
| 20260508020319 | 54 | 269 | 3.0 | 11.0 | 0.00 | 0.00 | 0.00 | 48 | 1010.6 |
| 20260508015831 | 54 | 306 | 3.0 | 7.0 | 0.00 | 0.00 | 0.00 | 48 | 1010.6 |
| 20260508015323 | 54 | 304 | 3.0 | 6.0 | 0.00 | 0.00 | 0.00 | 47 | 1010.6 |
| 20260508014819 | 55 | 277 | 2.0 | 6.0 | 0.00 | 0.00 | 0.00 | 47 | 1010.5 |
| 20260508014351 | 55 | 286 | 2.0 | 8.0 | 0.00 | 0.00 | 0.00 | 47 | 1010.5 |
| 20260508013822 | 55 | 294 | 4.0 | 8.0 | 0.00 | 0.00 | 0.00 | 46 | 1010.4 |
| 20260508013314 | 56 | 92 | 2.0 | 9.0 | 0.00 | 0.00 | 0.00 | 46 | 1010.4 |
| 20260508012826 | 56 | 308 | 2.0 | 9.0 | 0.00 | 0.00 | 0.00 | 46 | 1010.3 |
| 20260508012319 | 56 | 303 | 3.0 | 7.0 | 0.00 | 0.00 | 0.00 | 46 | 1010.3 |
| 20260508011831 | 56 | 284 | 4.0 | 11.0 | 0.00 | 0.00 | 0.00 | 45 | 1010.2 |
| 20260508011323 | 56 | 277 | 6.0 | 11.0 | 0.00 | 0.00 | 0.00 | 45 | 1010.0 |
| 20260508010835 | 56 | 277 | 7.0 | 11.0 | 0.00 | 0.00 | 0.00 | 45 | 1009.9 |
| 20260508010331 | 56 | 278 | 3.0 | 8.0 | 0.00 | 0.00 | 0.00 | 46 | 1009.9 |
| 20260508005822 | 56 | 273 | 3.0 | 9.0 | 0.00 | 0.00 | 0.00 | 45 | 1009.8 |
| 20260508005314 | 56 | 241 | 5.0 | 9.0 | 0.00 | 0.00 | 0.00 | 45 | 1009.8 |
| 20260508004826 | 56 | 282 | 0.0 | 2.0 | 0.00 | 0.00 | 0.00 | 46 | 1009.7 |
| 20260508004318 | 57 | 271 | 0.0 | 4.0 | 0.00 | 0.00 | 0.00 | 46 | 1009.7 |
| 20260508003830 | 57 | 268 | 1.0 | 4.0 | 0.00 | 0.00 | 0.00 | 45 | 1009.7 |
| 20260508003322 | 57 | 294 | 2.0 | 9.0 | 0.00 | 0.00 | 0.00 | 45 | 1009.6 |
| 20260508002814 | 58 | 290 | 2.0 | 9.0 | 0.00 | 0.00 | 0.00 | 44 | 1009.5 |
| 20260508002330 | 58 | 275 | 5.0 | 9.0 | 0.00 | 0.00 | 0.00 | 44 | 1009.5 |
| 20260508001822 | 58 | 295 | 3.0 | 9.0 | 0.00 | 0.00 | 0.00 | 44 | 1009.5 |
| 20260508001314 | 58 | 312 | 5.0 | 11.0 | 0.00 | 0.00 | 0.00 | 43 | 1009.3 |
| 20260508000826 | 58 | 300 | 5.0 | 11.0 | 0.00 | 0.00 | 0.00 | 43 | 1009.2 |
| 20260508000319 | 58 | 302 | 7.0 | 12.0 | 0.00 | 0.00 | 0.00 | 42 | 1009.1 |
| 20260507235828 | 58 | 281 | 5.0 | 14.0 | 0.00 | 0.00 | 0.00 | 43 | 1009.0 |
| 20260507235319 | 58 | 269 | 8.0 | 14.0 | 0.00 | 0.00 | 0.00 | 42 | 1008.9 |
| 20260507234831 | 59 | 286 | 7.0 | 14.0 | 0.00 | 0.00 | 0.00 | 42 | 1008.9 |
| 20260507234328 | 59 | 284 | 6.0 | 14.0 | 0.00 | 0.00 | 0.00 | 42 | 1008.8 |
| 20260507233839 | 59 | 293 | 7.0 | 12.0 | 0.00 | 0.00 | 0.00 | 41 | 1008.7 |
| 20260507233330 | 60 | 272 | 5.0 | 14.0 | 0.00 | 0.00 | 0.00 | 41 | 1008.7 |
| 20260507232843 | 60 | 279 | 9.0 | 14.0 | 0.00 | 0.00 | 0.00 | 40 | 1008.6 |
| 20260507232314 | 60 | 288 | 5.0 | 12.0 | 0.00 | 0.00 | 0.00 | 41 | 1008.7 |
| 20260507231827 | 60 | 299 | 7.0 | 11.0 | 0.00 | 0.00 | 0.00 | 41 | 1008.6 |
| 20260507231318 | 60 | 294 | 7.0 | 12.0 | 0.00 | 0.00 | 0.00 | 41 | 1008.6 |
| 20260507230850 | 60 | 271 | 7.0 | 13.0 | 0.00 | 0.00 | 0.00 | 41 | 1008.6 |
| 20260507230321 | 60 | 300 | 8.0 | 13.0 | 0.00 | 0.00 | 0.00 | 40 | 1008.5 |
| 20260507225831 | 60 | 271 | 8.0 | 13.0 | 0.00 | 0.00 | 0.00 | 40 | 1008.4 |
| 20260507225323 | 60 | 305 | 7.0 | 13.0 | 0.00 | 0.00 | 0.00 | 41 | 1008.3 |
| 20260507224815 | 60 | 302 | 8.0 | 15.0 | 0.00 | 0.00 | 0.00 | 41 | 1008.3 |
| 20260507224327 | 61 | 302 | 7.0 | 15.0 | 0.00 | 0.00 | 0.00 | 41 | 1008.2 |
| 20260507223819 | 61 | 285 | 8.0 | 13.0 | 0.00 | 0.00 | 0.00 | 40 | 1008.2 |
| 20260507223331 | 61 | 312 | 7.0 | 11.0 | 0.00 | 0.00 | 0.00 | 40 | 1008.0 |
| 20260507222822 | 62 | 302 | 6.0 | 11.0 | 0.00 | 0.00 | 0.00 | 40 | 1008.0 |
| 20260507222314 | 62 | 13 | 6.0 | 12.0 | 0.00 | 0.00 | 0.00 | 40 | 1007.8 |
| 20260507221826 | 62 | 294 | 8.0 | 12.0 | 0.00 | 0.00 | 0.00 | 39 | 1007.9 |
| 20260507221322 | 63 | 286 | 6.0 | 14.0 | 0.00 | 0.00 | 0.00 | 40 | 1007.9 |
| 20260507220854 | 63 | 271 | 9.0 | 14.0 | 0.00 | 0.00 | 0.00 | 39 | 1007.9 |
| 20260507220324 | 63 | 312 | 7.0 | 17.0 | 0.00 | 0.00 | 0.00 | 40 | 1007.7 |
| 20260507215813 | 63 | 305 | 10.0 | 16.0 | 0.00 | 0.00 | 0.00 | 37 | 1007.6 |
| 20260507215326 | 63 | 294 | 8.0 | 14.0 | 0.00 | 0.00 | 0.00 | 39 | 1007.6 |
| 20260507214817 | 63 | 281 | 4.0 | 13.0 | 0.00 | 0.00 | 0.00 | 41 | 1007.6 |
| 20260507214329 | 64 | 284 | 7.0 | 13.0 | 0.00 | 0.01 | 0.00 | 39 | 1007.6 |
| 20260507213820 | 64 | 130 | 5.0 | 12.0 | 0.00 | 0.01 | 0.00 | 39 | 1007.5 |
| 20260507213332 | 64 | 154 | 4.0 | 12.0 | 0.00 | 0.01 | 0.00 | 39 | 1007.4 |
| 20260507212828 | 64 | 295 | 5.0 | 12.0 | 0.00 | 0.01 | 0.00 | 42 | 1007.5 |
| 20260507212320 | 64 | 9 | 4.0 | 9.0 | 0.00 | 0.01 | 0.00 | 41 | 1007.4 |
| 20260507211832 | 64 | 276 | 5.0 | 12.0 | 0.00 | 0.01 | 0.00 | 40 | 1007.4 |
| 20260507211324 | 64 | 287 | 6.0 | 13.0 | 0.00 | 0.01 | 0.00 | 37 | 1007.4 |
| 20260507210816 | 64 | 290 | 7.0 | 13.0 | 0.00 | 0.01 | 0.00 | 38 | 1007.4 |
| 20260507210328 | 64 | 303 | 5.0 | 15.0 | 0.00 | 0.01 | 0.00 | 38 | 1007.3 |
| 20260507205818 | 64 | 288 | 4.0 | 15.0 | 0.00 | 0.01 | 0.00 | 39 | 1007.3 |
| 20260507205330 | 64 | 9 | 9.0 | 17.0 | 0.00 | 0.01 | 0.00 | 37 | 1007.1 |
| 20260507204842 | 64 | 360 | 9.0 | 14.0 | 0.00 | 0.01 | 0.00 | 39 | 1007.2 |
| 20260507204317 | 64 | 277 | 7.0 | 12.0 | 0.00 | 0.01 | 0.00 | 37 | 1007.4 |
| 20260507203829 | 64 | 83 | 7.0 | 12.0 | 0.00 | 0.01 | 0.00 | 39 | 1007.4 |
| 20260507203320 | 64 | 43 | 6.0 | 12.0 | 0.00 | 0.01 | 0.00 | 38 | 1007.5 |
| 20260507202832 | 65 | 244 | 6.0 | 12.0 | 0.00 | 0.01 | 0.00 | 37 | 1007.5 |
| 20260507202324 | 65 | 9 | 6.0 | 12.0 | 0.00 | 0.01 | 0.00 | 40 | 1007.6 |
| 20260507201816 | 65 | 274 | 7.0 | 12.0 | 0.00 | 0.01 | 0.00 | 38 | 1007.4 |
| 20260507201328 | 65 | 279 | 5.0 | 17.0 | 0.00 | 0.01 | 0.00 | 40 | 1007.5 |
| 20260507200840 | 65 | 284 | 9.0 | 17.0 | 0.00 | 0.01 | 0.00 | 39 | 1007.4 |
| 20260507200315 | 65 | 151 | 5.0 | 12.0 | 0.00 | 0.01 | 0.00 | 40 | 1007.5 |
| 20260507195826 | 65 | 313 | 7.0 | 12.0 | 0.00 | 0.01 | 0.00 | 43 | 1007.5 |
| 20260507195318 | 65 | 307 | 7.0 | 14.0 | 0.00 | 0.01 | 0.00 | 40 | 1007.6 |
| 20260507194850 | 65 | 212 | 7.0 | 14.0 | 0.00 | 0.01 | 0.00 | 37 | 1007.5 |
| 20260507194321 | 65 | 360 | 3.0 | 13.0 | 0.00 | 0.01 | 0.00 | 43 | 1007.6 |
| 20260507193833 | 64 | 309 | 8.0 | 13.0 | 0.00 | 0.01 | 0.00 | 38 | 1007.6 |
| 20260507193323 | 65 | 25 | 5.0 | 13.0 | 0.00 | 0.01 | 0.00 | 38 | 1007.7 |
| 20260507192836 | 65 | 296 | 7.0 | 13.0 | 0.00 | 0.01 | 0.00 | 37 | 1007.7 |
| 20260507192346 | 64 | 36 | 4.0 | 10.0 | 0.00 | 0.01 | 0.00 | 41 | 1007.8 |
| 20260507191817 | 64 | 286 | 4.0 | 9.0 | 0.00 | 0.01 | 0.00 | 39 | 1007.8 |
| 20260507191313 | 64 | 287 | 2.0 | 8.0 | 0.00 | 0.01 | 0.00 | 43 | 1007.9 |
| 20260507190825 | 63 | 304 | 3.0 | 13.0 | 0.00 | 0.01 | 0.00 | 40 | 1007.9 |
| 20260507190317 | 64 | 296 | 7.0 | 15.0 | 0.00 | 0.01 | 0.00 | 39 | 1007.9 |
| 20260507185828 | 65 | 268 | 9.0 | 15.0 | 0.00 | 0.01 | 0.00 | 40 | 1007.9 |
| 20260507185320 | 65 | 312 | 5.0 | 10.0 | 0.00 | 0.01 | 0.00 | 42 | 1008.1 |
| 20260507184832 | 65 | 9 | 4.0 | 9.0 | 0.00 | 0.01 | 0.00 | 42 | 1008.1 |
| 20260507184323 | 65 | 115 | 3.0 | 12.0 | 0.00 | 0.01 | 0.00 | 43 | 1008.2 |
| 20260507183815 | 65 | 159 | 5.0 | 10.0 | 0.00 | 0.01 | 0.00 | 45 | 1008.2 |
| 20260507183328 | 64 | 292 | 4.0 | 10.0 | 0.00 | 0.01 | 0.00 | 41 | 1008.3 |
| 20260507182824 | 64 | 110 | 4.0 | 11.0 | 0.00 | 0.01 | 0.00 | 43 | 1008.3 |
| 20260507182316 | 64 | 360 | 5.0 | 11.0 | 0.00 | 0.01 | 0.00 | 46 | 1008.2 |
| 20260507181828 | 64 | 267 | 3.0 | 11.0 | 0.00 | 0.01 | 0.00 | 47 | 1008.3 |
| 20260507181320 | 63 | 277 | 3.0 | 10.0 | 0.00 | 0.01 | 0.00 | 45 | 1008.4 |
| 20260507180832 | 63 | 285 | 3.0 | 9.0 | 0.00 | 0.01 | 0.00 | 49 | 1008.4 |
| 20260507180323 | 63 | 13 | 3.0 | 7.0 | 0.00 | 0.01 | 0.00 | 48 | 1008.5 |
| 20260507175833 | 62 | 94 | 1.0 | 11.0 | 0.00 | 0.01 | 0.00 | 47 | 1008.6 |
| 20260507175325 | 62 | 282 | 6.0 | 11.0 | 0.00 | 0.01 | 0.00 | 49 | 1008.7 |
| 20260507174842 | 61 | 311 | 2.0 | 11.0 | 0.00 | 0.01 | 0.00 | 50 | 1008.8 |
| 20260507174313 | 62 | 279 | 7.0 | 11.0 | 0.00 | 0.01 | 0.00 | 49 | 1008.9 |
| 20260507173826 | 62 | 14 | 1.0 | 10.0 | 0.00 | 0.01 | 0.00 | 46 | 1009.0 |
| 20260507173317 | 62 | 12 | 7.0 | 10.0 | 0.00 | 0.01 | 0.00 | 51 | 1009.1 |
| 20260507172829 | 62 | 313 | 2.0 | 12.0 | 0.00 | 0.01 | 0.00 | 51 | 1009.2 |
| 20260507172321 | 62 | 28 | 5.0 | 12.0 | 0.00 | 0.01 | 0.00 | 49 | 1009.2 |
| 20260507171813 | 62 | 18 | 2.0 | 7.0 | 0.00 | 0.01 | 0.00 | 49 | 1009.4 |
| 20260507171325 | 61 | 155 | 5.0 | 12.0 | 0.00 | 0.01 | 0.00 | 50 | 1009.5 |
| 20260507170837 | 61 | 290 | 5.0 | 12.0 | 0.00 | 0.01 | 0.00 | 51 | 1009.5 |
| 20260507170331 | 60 | 296 | 5.0 | 8.0 | 0.00 | 0.01 | 0.00 | 53 | 1009.6 |
| 20260507165824 | 60 | 24 | 3.0 | 12.0 | 0.00 | 0.01 | 0.00 | 49 | 1009.7 |
| 20260507165316 | 60 | 309 | 8.0 | 13.0 | 0.00 | 0.01 | 0.00 | 50 | 1009.9 |
| 20260507164828 | 60 | 300 | 8.0 | 13.0 | 0.00 | 0.01 | 0.00 | 54 | 1009.8 |
| 20260507164320 | 60 | 296 | 7.0 | 11.0 | 0.00 | 0.01 | 0.00 | 58 | 1009.8 |
| 20260507163853 | 60 | 9 | 4.0 | 9.0 | 0.00 | 0.01 | 0.00 | 56 | 1009.9 |
| 20260507163324 | 60 | 309 | 5.0 | 9.0 | 0.00 | 0.01 | 0.00 | 53 | 1010.0 |
| 20260507162816 | 59 | 170 | 3.0 | 10.0 | 0.00 | 0.01 | 0.00 | 51 | 1010.2 |
| 20260507162328 | 59 | 153 | 5.0 | 10.0 | 0.00 | 0.01 | 0.00 | 52 | 1010.2 |
| 20260507161824 | 58 | 287 | 3.0 | 11.0 | 0.00 | 0.01 | 0.00 | 58 | 1010.1 |
| 20260507161336 | 58 | 303 | 8.0 | 14.0 | 0.00 | 0.01 | 0.00 | 51 | 1010.2 |
| 20260507160847 | 58 | 277 | 4.0 | 14.0 | 0.00 | 0.01 | 0.00 | 53 | 1010.2 |
| 20260507160318 | 59 | 272 | 7.0 | 13.0 | 0.00 | 0.01 | 0.00 | 53 | 1010.4 |
| 20260507155828 | 58 | 311 | 3.0 | 11.0 | 0.00 | 0.01 | 0.00 | 57 | 1010.5 |
| 20260507155320 | 58 | 297 | 4.0 | 9.0 | 0.00 | 0.01 | 0.00 | 55 | 1010.6 |
| 20260507154852 | 57 | 295 | 3.0 | 8.0 | 0.00 | 0.01 | 0.00 | 55 | 1010.7 |
| 20260507154323 | 56 | 150 | 4.0 | 10.0 | 0.00 | 0.01 | 0.00 | 54 | 1010.7 |
| 20260507153835 | 56 | 292 | 5.0 | 12.0 | 0.00 | 0.01 | 0.00 | 55 | 1010.8 |
| 20260507153327 | 56 | 306 | 8.0 | 12.0 | 0.00 | 0.01 | 0.00 | 55 | 1010.8 |
| 20260507152839 | 56 | 304 | 9.0 | 12.0 | 0.00 | 0.01 | 0.00 | 58 | 1010.8 |
| 20260507152313 | 56 | 289 | 7.0 | 10.0 | 0.00 | 0.01 | 0.00 | 54 | 1010.7 |
| 20260507151826 | 55 | 298 | 5.0 | 12.0 | 0.00 | 0.01 | 0.00 | 56 | 1010.9 |
| 20260507151317 | 55 | 300 | 7.0 | 13.0 | 0.00 | 0.01 | 0.00 | 52 | 1011.0 |
| 20260507150850 | 55 | 306 | 8.0 | 13.0 | 0.00 | 0.01 | 0.00 | 54 | 1010.9 |
| 20260507150342 | 55 | 276 | 6.0 | 13.0 | 0.00 | 0.01 | 0.00 | 53 | 1011.1 |
| 20260507145853 | 54 | 288 | 8.0 | 14.0 | 0.00 | 0.01 | 0.00 | 54 | 1011.2 |
| 20260507145323 | 55 | 284 | 6.0 | 14.0 | 0.00 | 0.01 | 0.00 | 53 | 1011.3 |
| 20260507144836 | 56 | 308 | 7.0 | 11.0 | 0.00 | 0.01 | 0.00 | 56 | 1011.4 |
| 20260507144327 | 55 | 9 | 6.0 | 9.0 | 0.00 | 0.01 | 0.00 | 60 | 1011.6 |
| 20260507143819 | 54 | 95 | 3.0 | 6.0 | 0.00 | 0.01 | 0.00 | 60 | 1011.7 |
| 20260507143353 | 54 | 293 | 4.0 | 8.0 | 0.00 | 0.01 | 0.00 | 57 | 1011.8 |
| 20260507142828 | 54 | 290 | 6.0 | 9.0 | 0.00 | 0.01 | 0.00 | 54 | 1011.9 |
| 20260507142340 | 55 | 278 | 4.0 | 12.0 | 0.00 | 0.01 | 0.00 | 58 | 1011.8 |
| 20260507141832 | 54 | 26 | 6.0 | 12.0 | 0.00 | 0.01 | 0.00 | 58 | 1011.8 |
| 20260507141323 | 53 | 273 | 5.0 | 9.0 | 0.00 | 0.01 | 0.00 | 59 | 1011.9 |
| 20260507140815 | 53 | 19 | 4.0 | 8.0 | 0.00 | 0.01 | 0.00 | 60 | 1011.9 |
| 20260507140347 | 53 | 13 | 4.0 | 9.0 | 0.00 | 0.01 | 0.00 | 58 | 1012.0 |
| 20260507135815 | 52 | 305 | 6.0 | 10.0 | 0.00 | 0.01 | 0.00 | 61 | 1012.1 |
| 20260507135328 | 52 | 249 | 6.0 | 10.0 | 0.00 | 0.01 | 0.00 | 59 | 1012.1 |
| 20260507134819 | 52 | 281 | 6.0 | 12.0 | 0.00 | 0.01 | 0.00 | 57 | 1012.1 |
| 20260507134316 | 52 | 296 | 7.0 | 12.0 | 0.00 | 0.02 | 0.00 | 58 | 1012.2 |
| 20260507133828 | 52 | 287 | 8.0 | 10.0 | 0.00 | 0.02 | 0.00 | 58 | 1012.2 |
| 20260507133320 | 52 | 313 | 6.0 | 10.0 | 0.00 | 0.02 | 0.00 | 59 | 1012.4 |
| 20260507132832 | 52 | 282 | 6.0 | 11.0 | 0.00 | 0.02 | 0.00 | 55 | 1012.4 |
| 20260507132324 | 53 | 284 | 7.0 | 11.0 | 0.00 | 0.02 | 0.00 | 55 | 1012.4 |
| 20260507131816 | 53 | 290 | 7.0 | 11.0 | 0.00 | 0.02 | 0.00 | 56 | 1012.4 |
| 20260507131328 | 52 | 277 | 5.0 | 11.0 | 0.00 | 0.02 | 0.00 | 59 | 1012.4 |
| 20260507130819 | 51 | 281 | 5.0 | 11.0 | 0.00 | 0.02 | 0.00 | 61 | 1012.3 |
| 20260507130314 | 50 | 296 | 6.0 | 11.0 | 0.00 | 0.02 | 0.00 | 62 | 1012.3 |
| 20260507125825 | 50 | 277 | 7.0 | 11.0 | 0.00 | 0.02 | 0.00 | 58 | 1012.4 |
| 20260507125316 | 50 | 286 | 5.0 | 11.0 | 0.00 | 0.02 | 0.00 | 61 | 1012.5 |
| 20260507124828 | 50 | 295 | 5.0 | 11.0 | 0.00 | 0.02 | 0.00 | 62 | 1012.5 |
| 20260507124339 | 50 | 273 | 7.0 | 11.0 | 0.00 | 0.05 | 0.00 | 60 | 1012.4 |
| 20260507123830 | 50 | 302 | 4.0 | 12.0 | 0.00 | 0.05 | 0.00 | 62 | 1012.5 |
| 20260507123321 | 50 | 270 | 6.0 | 12.0 | 0.00 | 0.05 | 0.00 | 60 | 1012.4 |
| 20260507122813 | 50 | 277 | 4.0 | 7.0 | 0.00 | 0.05 | 0.00 | 64 | 1012.4 |
| 20260507122326 | 50 | 292 | 3.0 | 8.0 | 0.00 | 0.05 | 0.00 | 66 | 1012.4 |
| 20260507121822 | 50 | 311 | 3.0 | 8.0 | 0.00 | 0.05 | 0.00 | 68 | 1012.5 |
| 20260507121313 | 49 | 303 | 3.0 | 7.0 | 0.00 | 0.05 | 0.00 | 67 | 1012.4 |
| 20260507120826 | 49 | 311 | 3.0 | 5.0 | 0.00 | 0.05 | 0.00 | 71 | 1012.4 |
| 20260507120318 | 49 | 309 | 2.0 | 3.0 | 0.00 | 0.05 | 0.00 | 72 | 1012.4 |
| 20260507115827 | 49 | 15 | 1.0 | 3.0 | 0.00 | 0.05 | 0.00 | 74 | 1012.4 |
| 20260507115318 | 49 | 311 | 1.0 | 3.0 | 0.00 | 0.05 | 0.00 | 74 | 1012.3 |
| 20260507114831 | 49 | 311 | 1.0 | 5.0 | 0.00 | 0.05 | 0.00 | 74 | 1012.3 |
| 20260507114342 | 49 | 298 | 2.0 | 5.0 | 0.00 | 0.07 | 0.00 | 74 | 1012.3 |
| 20260507113813 | 49 | 302 | 2.0 | 4.0 | 0.00 | 0.07 | 0.00 | 73 | 1012.2 |
| 20260507113345 | 49 | 305 | 1.0 | 5.0 | 0.00 | 0.07 | 0.00 | 72 | 1012.2 |
| 20260507112820 | 48 | 293 | 3.0 | 5.0 | 0.00 | 0.07 | 0.00 | 73 | 1012.1 |
| 20260507112332 | 48 | 290 | 2.0 | 4.0 | 0.00 | 0.07 | 0.00 | 72 | 1012.1 |
| 20260507111824 | 48 | 307 | 3.0 | 5.0 | 0.00 | 0.07 | 0.00 | 73 | 1012.0 |
| 20260507111316 | 48 | 304 | 3.0 | 5.0 | 0.00 | 0.07 | 0.00 | 72 | 1012.0 |
| 20260507110828 | 48 | 285 | 4.0 | 6.0 | 0.00 | 0.07 | 0.00 | 73 | 1011.9 |
| 20260507110320 | 48 | 298 | 3.0 | 5.0 | 0.00 | 0.07 | 0.00 | 73 | 1012.0 |
| 20260507105830 | 48 | 304 | 3.0 | 5.0 | 0.00 | 0.07 | 0.00 | 75 | 1012.1 |
| 20260507105322 | 48 | 282 | 3.0 | 8.0 | 0.00 | 0.07 | 0.00 | 75 | 1012.0 |
| 20260507104819 | 49 | 306 | 5.0 | 8.0 | 0.00 | 0.07 | 0.00 | 75 | 1011.9 |
| 20260507104331 | 49 | 300 | 6.0 | 8.0 | 0.00 | 0.07 | 0.00 | 75 | 1011.9 |
| 20260507103841 | 49 | 311 | 3.0 | 6.0 | 0.00 | 0.07 | 0.00 | 79 | 1011.8 |
| 20260507103332 | 49 | 306 | 2.0 | 3.0 | 0.00 | 0.07 | 0.00 | 81 | 1011.8 |
| 20260507102824 | 49 | 14 | 0.0 | 4.0 | 0.00 | 0.07 | 0.00 | 81 | 1011.7 |
| 20260507102337 | 49 | 303 | 2.0 | 4.0 | 0.00 | 0.07 | 0.00 | 80 | 1011.6 |
| 20260507101828 | 49 | 309 | 2.0 | 4.0 | 0.00 | 0.07 | 0.00 | 79 | 1011.3 |
| 20260507101320 | 49 | 304 | 3.0 | 4.0 | 0.00 | 0.07 | 0.00 | 78 | 1011.2 |
| 20260507100851 | 49 | 296 | 2.0 | 4.0 | 0.00 | 0.07 | 0.00 | 78 | 1011.2 |
| 20260507100322 | 49 | 290 | 2.0 | 6.0 | 0.00 | 0.07 | 0.00 | 78 | 1011.3 |
| 20260507095817 | 49 | 290 | 1.0 | 5.0 | 0.00 | 0.07 | 0.00 | 78 | 1011.3 |
| 20260507095349 | 49 | 293 | 3.0 | 5.0 | 0.00 | 0.07 | 0.00 | 78 | 1011.3 |
| 20260507094820 | 49 | 292 | 2.0 | 6.0 | 0.00 | 0.07 | 0.00 | 79 | 1011.3 |
| 20260507094332 | 49 | 279 | 2.0 | 6.0 | 0.00 | 0.07 | 0.00 | 79 | 1011.1 |
| 20260507093824 | 49 | 277 | 2.0 | 5.0 | 0.00 | 0.07 | 0.00 | 79 | 1011.0 |
| 20260507093336 | 50 | 290 | 3.0 | 4.0 | 0.00 | 0.07 | 0.00 | 79 | 1011.1 |
| 20260507092827 | 50 | 298 | 2.0 | 5.0 | 0.00 | 0.07 | 0.00 | 79 | 1010.9 |
| 20260507092318 | 50 | 304 | 3.0 | 8.0 | 0.00 | 0.07 | 0.00 | 79 | 1010.9 |
| 20260507091830 | 50 | 296 | 4.0 | 8.0 | 0.00 | 0.07 | 0.00 | 79 | 1010.9 |
| 20260507091342 | 50 | 287 | 3.0 | 8.0 | 0.00 | 0.07 | 0.00 | 78 | 1010.9 |
| 20260507090817 | 50 | 298 | 4.0 | 7.0 | 0.00 | 0.07 | 0.00 | 78 | 1011.1 |
| 20260507090329 | 50 | 284 | 2.0 | 5.0 | 0.00 | 0.07 | 0.00 | 78 | 1011.1 |
| 20260507085818 | 50 | 273 | 3.0 | 8.0 | 0.00 | 0.07 | 0.00 | 78 | 1011.2 |
| 20260507085331 | 50 | 273 | 5.0 | 8.0 | 0.00 | 0.07 | 0.00 | 78 | 1011.2 |
| 20260507084822 | 50 | 287 | 3.0 | 8.0 | 0.00 | 0.07 | 0.00 | 78 | 1011.1 |
| 20260507084314 | 50 | 281 | 6.0 | 8.0 | 0.00 | 0.07 | 0.00 | 78 | 1011.2 |
| 20260507083847 | 50 | 269 | 3.0 | 9.0 | 0.00 | 0.07 | 0.00 | 78 | 1011.1 |
| 20260507083318 | 50 | 281 | 4.0 | 11.0 | 0.00 | 0.07 | 0.00 | 78 | 1011.1 |
| 20260507082813 | 50 | 276 | 5.0 | 11.0 | 0.00 | 0.07 | 0.00 | 79 | 1011.1 |
| 20260507082346 | 50 | 275 | 4.0 | 8.0 | 0.00 | 0.07 | 0.00 | 80 | 1010.9 |
| 20260507081816 | 50 | 279 | 4.0 | 8.0 | 0.00 | 0.07 | 0.00 | 81 | 1011.1 |
| 20260507081347 | 50 | 302 | 3.0 | 5.0 | 0.00 | 0.07 | 0.00 | 82 | 1011.0 |
| 20260507080817 | 50 | 277 | 3.0 | 8.0 | 0.00 | 0.07 | 0.00 | 82 | 1011.1 |
| 20260507080329 | 50 | 284 | 4.0 | 8.0 | 0.00 | 0.07 | 0.00 | 83 | 1011.1 |
| 20260507075819 | 50 | 288 | 5.0 | 8.0 | 0.00 | 0.07 | 0.00 | 83 | 1010.9 |
| 20260507075330 | 50 | 279 | 4.0 | 9.0 | 0.00 | 0.07 | 0.00 | 83 | 1010.8 |
| 20260507074823 | 50 | 286 | 4.0 | 9.0 | 0.00 | 0.07 | 0.00 | 83 | 1010.7 |
| 20260507074315 | 50 | 267 | 3.0 | 9.0 | 0.00 | 0.07 | 0.00 | 83 | 1010.7 |
| 20260507073831 | 50 | 266 | 6.0 | 9.0 | 0.00 | 0.07 | 0.00 | 83 | 1010.7 |
| 20260507073344 | 50 | 256 | 3.0 | 8.0 | 0.00 | 0.07 | 0.00 | 83 | 1010.6 |
| 20260507072815 | 51 | 296 | 2.0 | 6.0 | 0.00 | 0.07 | 0.00 | 83 | 1010.7 |
| 20260507072328 | 51 | 270 | 2.0 | 4.0 | 0.00 | 0.07 | 0.00 | 83 | 1010.7 |
| 20260507071819 | 51 | 277 | 1.0 | 4.0 | 0.00 | 0.07 | 0.00 | 83 | 1010.6 |
| 20260507071331 | 51 | 297 | 2.0 | 4.0 | 0.00 | 0.07 | 0.00 | 83 | 1010.7 |
| 20260507070822 | 51 | 274 | 1.0 | 8.0 | 0.00 | 0.07 | 0.00 | 82 | 1010.6 |
| 20260507070314 | 51 | 274 | 3.0 | 8.0 | 0.00 | 0.07 | 0.00 | 82 | 1010.6 |
| 20260507065824 | 51 | 271 | 0.0 | 5.0 | 0.00 | 0.07 | 0.00 | 82 | 1010.6 |
| 20260507065319 | 51 | 268 | 3.0 | 8.0 | 0.00 | 0.07 | 0.00 | 82 | 1010.6 |
| 20260507064833 | 51 | 279 | 4.0 | 9.0 | 0.00 | 0.07 | 0.00 | 82 | 1010.7 |
| 20260507064324 | 51 | 269 | 5.0 | 9.0 | 0.00 | 0.07 | 0.00 | 82 | 1010.8 |
| 20260507063816 | 51 | 277 | 3.0 | 8.0 | 0.00 | 0.07 | 0.00 | 82 | 1010.9 |
| 20260507063349 | 51 | 265 | 4.0 | 11.0 | 0.00 | 0.07 | 0.00 | 82 | 1011.0 |
| 20260507062819 | 51 | 286 | 6.0 | 11.0 | 0.00 | 0.07 | 0.00 | 82 | 1011.1 |
| 20260507062331 | 51 | 281 | 3.0 | 6.0 | 0.00 | 0.07 | 0.00 | 82 | 1011.1 |
| 20260507061844 | 51 | 269 | 3.0 | 5.0 | 0.00 | 0.07 | 0.00 | 82 | 1011.1 |
| 20260507061316 | 51 | 276 | 3.0 | 7.0 | 0.00 | 0.07 | 0.00 | 82 | 1011.3 |
| 20260507060832 | 51 | 275 | 4.0 | 7.0 | 0.00 | 0.07 | 0.00 | 82 | 1011.4 |
| 20260507060323 | 51 | 284 | 3.0 | 5.0 | 0.00 | 0.07 | 0.00 | 81 | 1011.4 |
| 20260507055813 | 51 | 267 | 2.0 | 4.0 | 0.00 | 0.07 | 0.00 | 81 | 1011.5 |
| 20260507055325 | 51 | 283 | 2.0 | 9.0 | 0.00 | 0.07 | 0.00 | 81 | 1011.4 |
| 20260507054817 | 51 | 292 | 4.0 | 9.0 | 0.00 | 0.07 | 0.00 | 81 | 1011.4 |
| 20260507054329 | 51 | 302 | 5.0 | 10.0 | 0.00 | 0.07 | 0.00 | 81 | 1011.4 |
| 20260507053822 | 51 | 273 | 6.0 | 10.0 | 0.00 | 0.07 | 0.00 | 81 | 1011.5 |
| 20260507053333 | 51 | 299 | 4.0 | 10.0 | 0.00 | 0.07 | 0.00 | 81 | 1011.4 |
| 20260507052828 | 51 | 273 | 6.0 | 10.0 | 0.00 | 0.07 | 0.00 | 81 | 1011.3 |
| 20260507052320 | 51 | 293 | 3.0 | 10.0 | 0.00 | 0.07 | 0.00 | 81 | 1011.3 |
| 20260507051833 | 51 | 277 | 4.0 | 11.0 | 0.00 | 0.07 | 0.00 | 81 | 1011.2 |
| 20260507051324 | 51 | 281 | 5.0 | 12.0 | 0.00 | 0.07 | 0.00 | 81 | 1011.0 |
| 20260507050837 | 51 | 277 | 4.0 | 12.0 | 0.00 | 0.07 | 0.00 | 82 | 1011.0 |
| 20260507050328 | 51 | 290 | 5.0 | 10.0 | 0.00 | 0.07 | 0.00 | 82 | 1010.8 |
| 20260507045817 | 51 | 288 | 6.0 | 11.0 | 0.00 | 0.07 | 0.00 | 82 | 1010.7 |
| 20260507045329 | 51 | 290 | 7.0 | 11.0 | 0.00 | 0.07 | 0.00 | 82 | 1010.8 |
| 20260507044821 | 51 | 309 | 7.0 | 12.0 | 0.00 | 0.07 | 0.00 | 81 | 1010.9 |
| 20260507044317 | 51 | 265 | 9.0 | 12.0 | 0.00 | 0.07 | 0.00 | 81 | 1011.0 |
| 20260507043850 | 52 | 281 | 6.0 | 10.0 | 0.00 | 0.07 | 0.00 | 81 | 1011.1 |
| 20260507043341 | 52 | 285 | 5.0 | 10.0 | 0.00 | 0.07 | 0.00 | 81 | 1011.2 |
| 20260507042832 | 52 | 294 | 5.0 | 11.0 | 0.00 | 0.07 | 0.00 | 81 | 1011.0 |
| 20260507042323 | 52 | 280 | 6.0 | 11.0 | 0.00 | 0.07 | 0.00 | 82 | 1011.1 |
| 20260507041815 | 52 | 279 | 3.0 | 10.0 | 0.00 | 0.07 | 0.00 | 82 | 1011.0 |